Carmean, Kansas
Current Conditions -  °F | °C
As of 4:52 PM on Wednesday 17 Dec 2014 (Local Time) from KCNU Reporting Station
Overcast Overcast  
Wind Chill: 26°   Ceiling: 5000
Heat Index: 32°   Visibility: 9mi
Dew Point: 27°   Wind: 6mph
Humidity: 82%   Direction: 50°NE
Pressure: 30.2"   Gusts: NA
Location:  37.9743°N, 95.5572°W
Report Text: KCNU 172252Z AUTO 05005KT 9SM BKN050 OVC060 00/M03 A3020 RMK AO2 SLP235 T00001028
Loading
Personal Weather Stations






























Interactive Weather Map New forecast layout! Learn more

10-Day Weather Forecast

Advertisements
Track Severe Weather on mobile